Time;durP1;ratioP1;P1;durP2;ratioP2;P2;SDS_P1;SDS_P2;PMS_P1;PMS_P2;Temp;Humidity;BMP_temperature;BMP_pressure;BME280_temperature;BME280_humidity;BME280_pressure;Samples;Min_cycle;Max_cycle;Signal;HPM_P1;HPM_P2
2022/02/05 00:00:35;;;;;;;7.78;1.80;;;;;;;4.47;100.00;100218.09;5230289;28;20029;-79
2022/02/05 00:42:05;;;;;;;8.38;2.15;;;;;;;4.49;100.00;100243.03;5229281;28;20139;-78
2022/02/05 00:44:16;;;;;;;6.45;1.70;;;;;;;4.56;100.00;100236.91;5224174;28;20060;-79
2022/02/05 00:46:49;;;;;;;8.32;2.22;;;;;;;4.57;100.00;100233.44;5228742;28;20127;-79
2022/02/05 00:49:19;;;;;;;10.05;1.90;;;;;;;4.66;100.00;100243.59;5228205;28;20491;-79
2022/02/05 00:51:59;;;;;;;8.20;2.10;;;;;;;4.66;100.00;100245.38;5228435;28;20035;-79
2022/02/05 00:54:30;;;;;;;8.70;2.33;;;;;;;4.61;100.00;100245.44;5229329;28;20032;-79
2022/02/05 00:59:36;;;;;;;10.18;2.38;;;;;;;4.64;100.00;100252.31;5228780;28;20024;-79
2022/02/05 01:02:06;;;;;;;6.80;1.95;;;;;;;4.66;100.00;100261.72;5221191;28;20025;-79
2022/02/05 01:04:37;;;;;;;7.55;2.42;;;;;;;4.71;100.00;100264.25;5226773;28;20499;-79
2022/02/05 01:07:07;;;;;;;7.35;2.28;;;;;;;4.67;100.00;100273.78;5207521;28;20042;-79
2022/02/05 01:09:39;;;;;;;13.52;2.65;;;;;;;4.78;100.00;100269.28;5223972;28;20562;-79
2022/02/05 01:12:10;;;;;;;11.15;2.63;;;;;;;4.77;100.00;100285.69;5226505;28;20028;-78
2022/02/05 01:14:49;;;;;;;8.98;2.65;;;;;;;4.84;100.00;100273.50;5234617;28;20039;-80
2022/02/05 01:17:27;;;;;;;6.93;2.15;;;;;;;4.81;100.00;100274.41;5226218;28;20477;-79
2022/02/05 01:22:33;;;;;;;9.25;2.70;;;;;;;4.88;100.00;100283.78;5227598;28;20478;-79
2022/02/05 01:25:04;;;;;;;12.85;2.83;;;;;;;4.81;100.00;100287.34;5228338;28;20036;-79
2022/02/05 01:27:43;;;;;;;8.77;2.58;;;;;;;4.74;100.00;100290.94;5230995;28;20442;-79
2022/02/05 01:30:22;;;;;;;5.88;2.55;;;;;;;4.81;100.00;100279.59;5231049;28;20435;-79
2022/02/05 01:33:06;;;;;;;10.00;3.17;;;;;;;4.83;100.00;100295.94;5229723;28;20085;-79
2022/02/05 01:35:50;;;;;;;10.57;2.80;;;;;;;4.83;100.00;100300.28;5226473;28;20021;-79
2022/02/05 01:52:22;;;;;;;8.68;3.20;;;;;;;4.74;100.00;100316.81;5229015;28;20027;-78
2022/02/05 01:57:39;;;;;;;8.02;3.40;;;;;;;4.86;100.00;100324.38;5226205;28;20051;-79
2022/02/05 02:05:40;;;;;;;8.65;3.60;;;;;;;4.77;100.00;100336.63;5222026;28;20051;-79
2022/02/05 02:19:54;;;;;;;10.25;4.60;;;;;;;4.83;100.00;100329.59;5228686;28;20521;-80
2022/02/05 02:22:35;;;;;;;6.75;3.83;;;;;;;4.82;100.00;100337.41;5222455;28;20032;-81
2022/02/05 02:25:26;;;;;;;11.15;4.32;;;;;;;4.87;100.00;100330.41;5229687;28;20475;-81
2022/02/05 02:28:07;;;;;;;8.63;3.90;;;;;;;4.83;100.00;100331.34;5226397;28;20075;-80
2022/02/05 02:30:50;;;;;;;13.13;4.30;;;;;;;4.79;100.00;100329.69;5229595;28;20035;-78
2022/02/05 02:33:33;;;;;;;8.55;4.50;;;;;;;4.86;100.00;100342.50;5234219;28;20028;-79
2022/02/05 02:36:09;;;;;;;9.75;4.32;;;;;;;4.77;100.00;100337.47;5229314;28;20415;-79
2022/02/05 02:38:47;;;;;;;14.23;4.70;;;;;;;4.86;100.00;100333.88;5228128;28;20537;-83
2022/02/05 02:41:24;;;;;;;12.77;4.82;;;;;;;4.88;100.00;100339.88;5229361;28;20512;-81
2022/02/05 02:43:55;;;;;;;8.93;4.20;;;;;;;4.85;100.00;100334.75;5225191;28;20062;-79
2022/02/05 02:46:25;;;;;;;8.80;3.70;;;;;;;4.86;100.00;100347.69;5229000;28;20036;-81
2022/02/05 02:48:57;;;;;;;7.88;3.80;;;;;;;4.82;100.00;100335.66;5226858;28;20063;-79
2022/02/05 02:57:20;;;;;;;10.20;4.00;;;;;;;4.77;100.00;100353.00;5229325;28;20042;-82
2022/02/05 02:59:53;;;;;;;10.40;4.32;;;;;;;4.70;100.00;100369.50;5229527;28;20492;-78
2022/02/05 03:02:26;;;;;;;7.28;3.63;;;;;;;4.80;100.00;100368.47;5228873;28;20170;-80
2022/02/05 03:04:56;;;;;;;13.93;4.28;;;;;;;4.79;100.00;100366.75;5226283;28;20108;-79
2022/02/05 03:07:26;;;;;;;10.90;3.90;;;;;;;4.83;100.00;100371.00;5220860;28;20033;-80
2022/02/05 03:09:57;;;;;;;11.50;3.50;;;;;;;4.91;100.00;100370.88;5229671;28;20043;-80
2022/02/05 03:12:27;;;;;;;9.20;3.53;;;;;;;4.97;100.00;100371.66;5228348;28;20041;-79
2022/02/05 03:14:57;;;;;;;7.70;3.17;;;;;;;4.92;100.00;100370.88;5227775;28;20035;-81
2022/02/05 03:17:36;;;;;;;12.30;3.53;;;;;;;4.91;100.00;100376.94;5229180;28;20039;-79
2022/02/05 03:20:07;;;;;;;9.88;3.20;;;;;;;4.97;100.00;100376.81;5223464;28;20032;-79
2022/02/05 03:22:37;;;;;;;9.77;3.55;;;;;;;4.93;100.00;100375.19;5228101;28;20427;-78
2022/02/05 03:25:07;;;;;;;11.57;3.47;;;;;;;4.95;100.00;100377.75;5225222;28;20076;-80
2022/02/05 03:27:38;;;;;;;10.55;3.72;;;;;;;5.00;100.00;100383.69;5223975;28;20037;-80
2022/02/05 03:30:09;;;;;;;13.00;3.33;;;;;;;5.01;100.00;100372.47;5230765;28;20414;-79
2022/02/05 03:32:39;;;;;;;9.90;3.40;;;;;;;4.92;100.00;100382.94;5227654;28;20040;-79
2022/02/05 03:35:09;;;;;;;10.73;3.50;;;;;;;4.95;100.00;100386.34;5225047;28;20036;-78
2022/02/05 03:37:40;;;;;;;12.50;2.97;;;;;;;4.98;100.00;100375.94;5226343;28;20761;-81
2022/02/05 03:40:10;;;;;;;14.13;3.45;;;;;;;4.84;100.00;100383.06;5225922;28;20036;-79
2022/02/05 03:42:41;;;;;;;7.32;3.17;;;;;;;4.99;100.00;100385.41;5233301;28;20111;-79
2022/02/05 03:45:12;;;;;;;11.27;2.72;;;;;;;5.03;100.00;100396.59;5227897;28;20031;-78
2022/02/05 03:47:42;;;;;;;13.23;3.22;;;;;;;4.91;100.00;100397.66;5228527;28;20024;-79
2022/02/05 03:50:13;;;;;;;12.10;2.90;;;;;;;4.95;100.00;100394.13;5217531;28;20100;-83
2022/02/05 03:52:44;;;;;;;13.07;3.13;;;;;;;4.85;100.00;100408.09;5223688;28;20490;-84
2022/02/05 03:55:14;;;;;;;6.82;2.80;;;;;;;4.75;100.00;100409.13;5227349;28;20047;-82
2022/02/05 03:57:46;;;;;;;8.02;2.45;;;;;;;4.69;100.00;100411.81;5227698;28;20028;-80
2022/02/05 04:00:17;;;;;;;9.93;2.80;;;;;;;4.63;100.00;100411.88;5227403;28;20309;-81
2022/02/05 04:02:47;;;;;;;6.07;2.55;;;;;;;4.64;100.00;100423.94;5226617;28;20140;-81
2022/02/05 04:05:17;;;;;;;6.57;2.75;;;;;;;4.54;100.00;100414.59;5227213;28;20557;-81
2022/02/05 04:07:51;;;;;;;8.43;2.78;;;;;;;4.54;100.00;100427.53;5227212;28;20032;-80
2022/02/05 04:10:28;;;;;;;11.25;3.28;;;;;;;4.57;100.00;100427.50;5227592;28;20036;-82
2022/02/05 04:15:59;;;;;;;9.02;2.78;;;;;;;4.61;100.00;100429.16;5223305;28;20453;-79
2022/02/05 04:18:29;;;;;;;12.65;3.05;;;;;;;4.70;100.00;100429.03;5228894;28;20032;-80
2022/02/05 04:21:01;;;;;;;9.52;3.20;;;;;;;4.75;100.00;100432.41;5222412;28;20379;-82
2022/02/05 04:23:32;;;;;;;8.93;3.35;;;;;;;4.78;100.00;100442.72;5225686;28;20029;-80
2022/02/05 04:26:03;;;;;;;7.15;2.88;;;;;;;4.71;100.00;100438.50;5226271;28;20029;-79
2022/02/05 04:28:34;;;;;;;11.13;3.20;;;;;;;4.70;100.00;100444.56;5227004;28;20647;-80
2022/02/05 04:31:04;;;;;;;9.20;3.20;;;;;;;4.73;100.00;100448.81;5230727;28;20617;-80
2022/02/05 04:33:36;;;;;;;9.88;3.28;;;;;;;4.80;100.00;100438.38;5227800;28;20112;-80
2022/02/05 04:36:08;;;;;;;9.50;2.70;;;;;;;4.78;100.00;100442.72;5228137;28;20059;-81
2022/02/05 04:38:41;;;;;;;10.27;2.50;;;;;;;4.81;100.00;100437.47;5228143;28;20036;-81
2022/02/05 04:41:18;;;;;;;10.32;2.90;;;;;;;4.87;100.00;100436.53;5226795;28;20115;-82
2022/02/05 05:02:36;;;;;;;11.40;1.88;;;;;;;4.90;96.14;100437.38;5227088;28;20528;-80
2022/02/05 05:10:39;;;;;;;8.23;1.73;;;;;;;4.98;96.12;100463.97;5229477;28;20082;-81
2022/02/05 05:13:21;;;;;;;11.80;1.92;;;;;;;5.04;96.13;100463.91;5227811;28;20025;-83
2022/02/05 05:21:17;;;;;;;10.35;1.80;;;;;;;4.95;95.72;100466.63;5215905;28;20083;-80
2022/02/05 05:23:47;;;;;;;6.63;1.80;;;;;;;4.96;96.32;100473.50;5224696;28;20029;-80
2022/02/05 05:26:17;;;;;;;6.32;1.88;;;;;;;5.10;95.68;100473.28;5228401;28;20046;-79
2022/02/05 05:28:47;;;;;;;7.97;1.70;;;;;;;5.05;96.23;100478.56;5225113;28;20035;-79
2022/02/05 05:31:18;;;;;;;6.53;1.83;;;;;;;4.95;96.20;100487.34;5228174;28;20458;-80
2022/02/05 05:33:48;;;;;;;5.50;1.38;;;;;;;4.97;96.17;100485.56;5227537;28;20020;-82
2022/02/05 05:36:18;;;;;;;8.32;1.80;;;;;;;5.06;95.77;100494.94;5225597;28;20048;-81
2022/02/05 05:38:48;;;;;;;7.05;1.90;;;;;;;4.99;96.20;100495.91;5229556;28;20229;-81
2022/02/05 05:41:19;;;;;;;10.75;2.05;;;;;;;4.91;96.36;100506.38;5225830;28;20040;-82
2022/02/05 05:46:34;;;;;;;6.82;2.03;;;;;;;4.99;96.72;100521.81;5221476;28;20521;-79
2022/02/05 05:49:34;;;;;;;6.55;1.90;;;;;;;4.94;97.13;100503.75;5222969;28;20116;-78
2022/02/05 05:52:05;;;;;;;7.82;2.17;;;;;;;4.94;97.04;100511.50;5220144;28;20028;-79
2022/02/05 05:54:36;;;;;;;9.23;1.92;;;;;;;4.95;97.72;100505.47;5227052;28;20553;-81
2022/02/05 05:57:06;;;;;;;8.27;2.10;;;;;;;4.89;97.42;100510.72;5231322;28;20036;-81
2022/02/05 05:59:40;;;;;;;5.28;2.03;;;;;;;4.97;96.77;100519.22;5231062;28;20039;-79
2022/02/05 06:02:11;;;;;;;13.90;2.35;;;;;;;4.93;97.17;100520.16;5231829;28;20518;-79
2022/02/05 06:04:41;;;;;;;7.38;2.13;;;;;;;4.94;97.17;100521.03;5230326;28;20033;-80
2022/02/05 06:07:12;;;;;;;7.72;1.95;;;;;;;4.91;97.42;100527.09;5231356;28;20133;-81
2022/02/05 06:09:43;;;;;;;14.18;2.25;;;;;;;4.97;97.66;100529.59;5230641;28;20031;-82
2022/02/05 06:12:13;;;;;;;6.88;2.92;;;;;;;4.96;97.34;100540.81;5231965;28;20200;-80
2022/02/05 06:14:45;;;;;;;9.77;2.47;;;;;;;4.95;98.04;100544.28;5228894;28;20032;-82
2022/02/05 06:17:22;;;;;;;12.75;2.58;;;;;;;4.98;97.75;100548.59;5228653;28;20112;-80
2022/02/05 06:19:54;;;;;;;8.82;2.38;;;;;;;4.89;98.13;100557.34;5224315;28;20033;-78
2022/02/05 06:22:24;;;;;;;8.55;2.30;;;;;;;4.86;98.16;100565.16;5227791;28;20029;-82
2022/02/05 06:24:54;;;;;;;11.30;2.65;;;;;;;4.94;97.59;100567.63;5232755;28;20029;-80
2022/02/05 06:27:25;;;;;;;11.00;2.28;;;;;;;4.99;96.07;100571.84;5232178;28;20032;-81
2022/02/05 06:29:55;;;;;;;10.80;2.50;;;;;;;4.90;96.90;100581.47;5229405;28;20308;-79
2022/02/05 06:32:25;;;;;;;7.05;2.30;;;;;;;4.99;96.86;100587.38;5231131;28;20177;-79
2022/02/05 06:34:56;;;;;;;8.95;2.15;;;;;;;4.96;97.15;100592.63;5228804;28;20205;-80
2022/02/05 06:37:26;;;;;;;11.07;2.70;;;;;;;4.98;96.23;100593.44;5231580;28;20028;-80
2022/02/05 06:39:56;;;;;;;8.02;2.33;;;;;;;4.83;97.23;100597.97;5229187;28;20025;-82
2022/02/05 06:42:27;;;;;;;11.18;2.40;;;;;;;4.83;96.61;100601.41;5232051;28;20120;-81
2022/02/05 06:44:57;;;;;;;9.20;2.30;;;;;;;4.80;97.53;100613.56;5228102;28;20028;-81
2022/02/05 06:47:27;;;;;;;8.85;2.90;;;;;;;4.76;98.03;100627.38;5230371;28;20060;-81
2022/02/05 06:49:57;;;;;;;11.48;4.32;;;;;;;4.74;99.79;100639.47;5223864;28;20044;-80
2022/02/05 06:52:28;;;;;;;13.05;3.65;;;;;;;4.64;100.00;100646.50;5224988;28;20036;-80
2022/02/05 06:54:58;;;;;;;9.45;2.50;;;;;;;4.62;100.00;100643.06;5230852;28;20028;-82
2022/02/05 06:57:28;;;;;;;9.85;2.80;;;;;;;4.56;100.00;100645.72;5228427;28;20483;-81
2022/02/05 06:59:59;;;;;;;5.30;2.60;;;;;;;4.53;100.00;100642.31;5230570;28;20036;-80
2022/02/05 07:02:29;;;;;;;9.60;2.70;;;;;;;4.59;100.00;100645.69;5231515;28;20513;-84
2022/02/05 07:05:00;;;;;;;9.55;2.60;;;;;;;4.54;100.00;100641.44;5226508;28;20116;-80
2022/02/05 07:07:30;;;;;;;7.82;2.70;;;;;;;4.58;100.00;100659.50;5229857;28;20028;-80
2022/02/05 07:10:00;;;;;;;13.00;3.60;;;;;;;4.59;100.00;100657.75;5228271;28;20028;-80
2022/02/05 07:12:33;;;;;;;5.60;2.60;;;;;;;4.51;100.00;100672.53;5230186;28;20188;-79
2022/02/05 07:15:10;;;;;;;14.15;2.70;;;;;;;4.57;100.00;100677.63;5228727;28;20063;-82
2022/02/05 07:20:44;;;;;;;;;;;;;;;4.47;100.00;100679.44;5216190;28;20045;-79
2022/02/05 07:31:32;;;;;;;7.28;2.75;;;;;;;4.62;100.00;100700.00;5225997;28;20548;-79
2022/02/05 07:34:03;;;;;;;12.27;2.95;;;;;;;4.61;100.00;100690.53;5228660;28;20036;-78
2022/02/05 07:36:33;;;;;;;12.88;3.08;;;;;;;4.67;100.00;100687.88;5229059;28;20517;-78
2022/02/05 07:39:06;;;;;;;13.50;4.47;;;;;;;4.68;100.00;100678.38;5229079;28;20082;-79
2022/02/05 07:41:39;;;;;;;12.35;4.18;;;;;;;4.67;100.00;100680.09;5229529;28;20644;-79
2022/02/05 07:44:13;;;;;;;8.70;3.03;;;;;;;4.74;100.00;100686.06;5224604;28;20060;-79
2022/02/05 07:46:48;;;;;;;8.38;2.90;;;;;;;4.92;100.00;100689.34;5229743;28;20561;-79
2022/02/05 07:49:22;;;;;;;11.73;2.67;;;;;;;5.05;99.17;100698.69;5223953;28;20033;-79
2022/02/05 07:51:52;;;;;;;8.00;2.38;;;;;;;5.10;98.04;100708.97;5222359;28;20031;-79
2022/02/05 07:54:22;;;;;;;10.32;2.50;;;;;;;5.16;97.84;100704.59;5226886;28;20490;-78
2022/02/05 07:56:53;;;;;;;8.80;2.42;;;;;;;4.93;97.31;100706.59;5230822;28;20043;-78
2022/02/05 07:59:23;;;;;;;7.13;2.05;;;;;;;5.00;98.03;100710.81;5225932;28;20481;-79
2022/02/05 08:01:54;;;;;;;6.97;2.03;;;;;;;4.93;97.87;100711.75;5224744;28;20032;-78
2022/02/05 08:04:24;;;;;;;10.73;2.28;;;;;;;4.99;98.14;100711.69;5225929;28;20070;-78
2022/02/05 08:06:57;;;;;;;10.30;2.13;;;;;;;5.10;97.35;100720.22;5224382;28;20101;-79
2022/02/05 08:09:42;;;;;;;12.00;2.42;;;;;;;5.10;96.67;100724.50;5226365;28;20305;-79
2022/02/05 08:12:14;;;;;;;11.30;2.20;;;;;;;5.18;96.45;100707.16;5224095;28;20025;-78
2022/02/05 08:14:46;;;;;;;7.70;2.45;;;;;;;5.24;95.07;100718.31;5224824;28;20115;-79
2022/02/05 08:17:23;;;;;;;8.73;2.13;;;;;;;5.09;94.86;100713.31;5226131;28;20145;-79
2022/02/05 08:19:53;;;;;;;9.77;2.42;;;;;;;5.00;96.26;100728.09;5221235;28;20090;-78
2022/02/05 08:22:24;;;;;;;12.73;2.75;;;;;;;5.01;96.27;100722.88;5222475;28;20036;-78
2022/02/05 08:24:55;;;;;;;12.57;2.40;;;;;;;5.12;96.23;100734.00;5225553;28;20031;-79
2022/02/05 08:27:26;;;;;;;11.13;2.35;;;;;;;6.03;91.69;100725.03;5227289;28;20517;-78
2022/02/05 08:29:59;;;;;;;9.07;2.20;;;;;;;6.87;88.10;100728.81;5225167;28;20033;-78
2022/02/05 08:32:29;;;;;;;11.60;2.10;;;;;;;7.30;84.91;100725.38;5227813;28;20017;-79
2022/02/05 08:35:00;;;;;;;8.23;2.40;;;;;;;8.12;81.74;100727.03;5225339;28;20031;-79
2022/02/05 08:37:34;;;;;;;8.50;1.88;;;;;;;7.59;82.67;100733.44;5226718;28;20041;-80
2022/02/05 08:40:06;;;;;;;10.32;2.58;;;;;;;7.73;83.78;100731.38;5228828;28;20102;-80
2022/02/05 08:42:37;;;;;;;10.20;2.47;;;;;;;8.21;81.72;100739.88;5228978;28;20029;-79
2022/02/05 08:45:07;;;;;;;11.45;2.20;;;;;;;8.85;78.45;100729.56;5230496;28;20246;-79
2022/02/05 08:47:40;;;;;;;11.63;2.10;;;;;;;9.27;76.62;100734.47;5228366;28;20123;-80
2022/02/05 08:50:10;;;;;;;11.48;2.15;;;;;;;9.60;75.67;100733.50;5222593;28;20052;-80
2022/02/05 08:52:41;;;;;;;9.73;2.15;;;;;;;9.85;74.52;100739.72;5224111;28;20063;-81
2022/02/05 08:55:13;;;;;;;12.07;2.50;;;;;;;9.66;76.01;100739.41;5230270;28;20110;-79
2022/02/05 08:57:44;;;;;;;9.82;2.45;;;;;;;9.65;73.98;100748.13;5229091;28;20025;-79
2022/02/05 09:00:22;;;;;;;9.98;2.15;;;;;;;8.59;79.63;100758.88;5230902;28;20032;-80
2022/02/05 09:03:03;;;;;;;11.13;2.00;;;;;;;7.64;82.60;100765.38;5223884;28;20032;-80
2022/02/05 09:05:43;;;;;;;8.75;2.17;;;;;;;6.79;88.87;100766.19;5230761;28;20509;-79
2022/02/05 09:08:31;;;;;;;12.45;2.33;;;;;;;6.45;91.37;100770.22;5229240;28;20032;-79
2022/02/05 09:11:29;;;;;;;11.27;2.28;;;;;;;6.02;94.95;100782.13;5226168;28;20025;-78
2022/02/05 09:14:31;;;;;;;12.15;2.30;;;;;;;5.91;96.00;100778.84;5226106;28;20029;-78
2022/02/05 09:17:03;;;;;;;9.18;3.17;;;;;;;5.58;100.00;100782.66;5226535;28;20093;-78
2022/02/05 09:19:35;;;;;;;9.40;3.00;;;;;;;5.52;100.00;100789.66;5225976;28;20033;-79
2022/02/05 09:22:06;;;;;;;16.48;2.85;;;;;;;5.35;100.00;100794.16;5220082;28;20470;-80
2022/02/05 09:24:37;;;;;;;13.30;3.88;;;;;;;5.22;100.00;100791.72;5229654;28;20038;-80
2022/02/05 09:27:11;;;;;;;11.35;3.50;;;;;;;5.16;100.00;100803.00;5228091;28;20028;-79
2022/02/05 09:32:28;;;;;;;11.88;3.42;;;;;;;5.28;100.00;100791.66;5229616;28;20036;-80
2022/02/05 09:34:58;;;;;;;12.30;2.92;;;;;;;5.30;100.00;100798.56;5235067;28;20241;-79
2022/02/05 09:37:28;;;;;;;13.85;3.42;;;;;;;5.31;100.00;100808.03;5232284;28;20055;-78
2022/02/05 09:39:59;;;;;;;10.55;2.50;;;;;;;5.52;100.00;100803.47;5233581;28;20032;-78
2022/02/05 09:42:29;;;;;;;9.05;2.42;;;;;;;5.55;100.00;100790.47;5233299;28;20036;-79
2022/02/05 09:45:01;;;;;;;16.42;2.85;;;;;;;5.52;99.46;100787.06;5232526;28;20098;-80
2022/02/05 09:47:31;;;;;;;10.65;2.45;;;;;;;5.59;99.68;100780.94;5234836;28;20448;-80
2022/02/05 09:50:04;;;;;;;9.93;2.28;;;;;;;5.60;98.62;100790.44;5226486;28;20033;-80
2022/02/05 09:52:34;;;;;;;12.50;2.92;;;;;;;5.61;98.09;100786.97;5227432;28;20032;-79
2022/02/05 09:55:06;;;;;;;13.05;2.60;;;;;;;5.60;96.53;100790.44;5233410;28;20136;-79
2022/02/05 09:57:36;;;;;;;11.63;2.75;;;;;;;5.64;96.74;100784.31;5233539;28;20087;-80
2022/02/05 10:00:14;;;;;;;8.82;2.10;;;;;;;5.57;95.79;100783.53;5234166;28;20033;-78
2022/02/05 10:02:50;;;;;;;9.73;2.45;;;;;;;5.70;96.38;100792.00;5232143;28;20084;-80
2022/02/05 10:05:22;;;;;;;12.30;2.58;;;;;;;5.94;96.36;100781.38;5235118;28;20073;-80
2022/02/05 10:08:01;;;;;;;9.38;2.20;;;;;;;6.14;94.71;100784.53;5228977;28;20263;-78
2022/02/05 10:10:51;;;;;;;14.00;2.00;;;;;;;6.18;93.72;100788.81;5230852;28;20060;-78
2022/02/05 10:13:21;;;;;;;10.25;2.80;;;;;;;6.29;95.09;100797.31;5232881;28;20028;-78
2022/02/05 10:15:54;;;;;;;12.40;2.60;;;;;;;6.16;94.95;100787.97;5226936;28;20097;-78
2022/02/05 10:18:32;;;;;;;10.73;2.80;;;;;;;6.07;95.03;100799.34;5235196;28;20040;-79
2022/02/05 10:21:18;;;;;;;14.50;3.17;;;;;;;6.12;94.93;100791.50;5221471;28;20033;-79
2022/02/05 10:24:04;;;;;;;13.05;2.80;;;;;;;6.18;94.09;100792.28;5229759;28;20590;-79
2022/02/05 10:26:43;;;;;;;9.15;1.80;;;;;;;6.02;93.34;100784.69;5228744;28;20078;-79
2022/02/05 10:29:16;;;;;;;9.70;1.90;;;;;;;5.97;92.77;100783.91;5229462;28;20973;-79
2022/02/05 10:32:00;;;;;;;9.73;2.20;;;;;;;5.99;93.24;100800.31;5232149;28;20029;-79
2022/02/05 10:34:35;;;;;;;14.38;2.60;;;;;;;6.30;93.37;100792.09;5227385;28;20033;-79
2022/02/05 10:37:17;;;;;;;8.68;1.90;;;;;;;6.43;91.50;100795.34;5230683;28;20030;-79
2022/02/05 10:45:21;;;;;;;17.88;3.80;;;;;;;6.40;90.36;100792.81;5228617;28;20111;-79
2022/02/05 10:47:55;;;;;;;10.93;2.63;;;;;;;6.55;89.58;100797.75;5224527;28;20116;-79
2022/02/05 10:50:30;;;;;;;10.85;2.30;;;;;;;6.41;89.83;100805.75;5223595;28;20032;-79
2022/02/05 10:53:10;;;;;;;12.55;2.30;;;;;;;6.44;88.77;100797.06;5222219;28;20032;-79
2022/02/05 10:56:11;;;;;;;8.95;2.38;;;;;;;6.40;89.86;100798.00;5225792;28;20737;-79
2022/02/05 11:07:19;;;;;;;10.48;2.33;;;;;;;6.72;89.52;100791.41;5229437;28;20051;-79
2022/02/05 11:09:52;;;;;;;11.52;3.13;;;;;;;6.78;88.34;100799.09;5228583;28;20020;-79
2022/02/05 11:15:56;;;;;;;9.07;2.30;;;;;;;6.85;88.03;100798.13;5229327;28;20518;-79
2022/02/05 11:20:39;;;;;;;10.88;2.17;;;;;;;7.10;85.86;100793.34;5225682;28;20033;-79
2022/02/05 11:23:11;;;;;;;6.28;1.40;;;;;;;7.08;84.73;100795.13;5222436;28;20037;-79
2022/02/05 11:25:42;;;;;;;8.32;1.75;;;;;;;7.25;84.16;100796.50;5233551;28;20167;-79
2022/02/05 11:28:12;;;;;;;7.57;1.98;;;;;;;7.44;84.78;100790.06;5231545;28;20104;-79
2022/02/05 11:30:45;;;;;;;7.97;1.80;;;;;;;7.56;84.51;100789.84;5232274;28;20028;-79
2022/02/05 11:33:24;;;;;;;9.15;2.13;;;;;;;7.56;83.13;100801.09;5222572;28;20744;-79
2022/02/05 11:38:58;;;;;;;9.32;2.40;;;;;;;7.06;82.02;100791.66;5230835;28;20093;-79
2022/02/05 11:41:32;;;;;;;9.02;2.17;;;;;;;7.02;81.71;100792.63;5220320;28;20040;-79
2022/02/05 11:44:20;;;;;;;13.77;3.00;;;;;;;6.95;81.53;100801.41;5229664;28;20478;-79
2022/02/05 11:47:06;;;;;;;8.48;2.20;;;;;;;6.81;82.10;100800.78;5233608;28;20577;-79
2022/02/05 11:49:56;;;;;;;12.82;2.60;;;;;;;6.80;82.88;100797.31;5224227;28;20680;-79
2022/02/05 11:52:36;;;;;;;9.57;2.67;;;;;;;6.86;82.17;100797.22;5220282;28;20098;-79
2022/02/05 11:55:07;;;;;;;13.02;2.13;;;;;;;6.95;82.33;100798.81;5224213;28;20635;-79
2022/02/05 11:57:44;;;;;;;12.93;2.35;;;;;;;6.97;81.99;100797.88;5232279;28;20033;-79
2022/02/05 12:00:20;;;;;;;13.20;2.47;;;;;;;7.10;82.29;100788.16;5227066;28;20048;-79
2022/02/05 12:03:03;;;;;;;11.18;2.92;;;;;;;7.11;83.17;100797.66;5231498;28;20025;-79
2022/02/05 12:05:37;;;;;;;10.70;2.40;;;;;;;7.34;83.65;100789.41;5226427;28;20691;-79
2022/02/05 12:08:10;;;;;;;11.02;2.35;;;;;;;7.20;82.39;100785.34;5229374;28;20032;-79
2022/02/05 12:10:48;;;;;;;12.55;2.65;;;;;;;7.28;81.38;100787.81;5230376;28;20064;-79
2022/02/05 12:13:27;;;;;;;7.85;1.85;;;;;;;7.13;80.43;100777.69;5228993;28;20455;-79
2022/02/05 12:15:58;;;;;;;8.65;2.28;;;;;;;7.34;80.93;100794.59;5225290;28;20114;-79
2022/02/05 12:18:31;;;;;;;10.05;2.17;;;;;;;7.45;80.03;100802.19;5228215;28;20070;-79
2022/02/05 12:21:26;;;;;;;7.57;1.70;;;;;;;7.42;80.13;100791.84;5221431;28;20612;-79
2022/02/05 12:26:31;;;;;;;12.27;2.00;;;;;;;7.25;80.93;100796.50;5225842;28;20029;-79
2022/02/05 12:29:21;;;;;;;8.63;1.70;;;;;;;7.00;80.75;100803.06;5223343;28;20028;-79
2022/02/05 12:31:52;;;;;;;7.20;1.45;;;;;;;6.86;80.07;100785.97;5223850;28;20036;-79
2022/02/05 12:34:23;;;;;;;7.97;1.65;;;;;;;7.02;79.61;100800.41;5226862;28;20518;-79
2022/02/05 12:36:54;;;;;;;6.03;1.67;;;;;;;6.97;79.49;100797.88;5227344;28;20509;-79
2022/02/05 12:39:29;;;;;;;16.30;1.90;;;;;;;7.00;78.01;100796.97;5220717;28;20777;-79
2022/02/05 12:42:06;;;;;;;7.70;1.70;;;;;;;6.95;79.56;100801.41;5216840;28;20067;-79
2022/02/05 12:44:38;;;;;;;6.53;1.60;;;;;;;6.93;79.72;100806.63;5223565;28;20021;-79
2022/02/05 12:47:18;;;;;;;8.32;1.85;;;;;;;7.03;79.00;100796.94;5222929;28;20049;-79
2022/02/05 12:49:55;;;;;;;5.05;1.40;;;;;;;7.03;77.92;100795.19;5220533;28;20029;-79
2022/02/05 12:52:29;;;;;;;5.25;1.60;;;;;;;7.05;78.02;100800.34;5221320;28;20174;-79
2022/02/05 12:55:02;;;;;;;5.95;1.50;;;;;;;6.99;78.53;100795.28;5219250;28;20026;-79
2022/02/05 12:57:32;;;;;;;6.53;1.55;;;;;;;6.78;78.97;100793.88;5226606;28;20032;-79
2022/02/05 13:00:08;;;;;;;8.13;1.33;;;;;;;6.78;79.03;100790.44;5226778;28;20675;-79
2022/02/05 13:02:38;;;;;;;9.48;1.50;;;;;;;6.77;80.25;100794.78;5226280;28;20037;-79
2022/02/05 13:05:08;;;;;;;6.80;1.75;;;;;;;6.88;80.31;100797.19;5226295;28;20435;-79
2022/02/05 13:07:42;;;;;;;6.32;1.40;;;;;;;6.89;79.93;100783.31;5227231;28;20090;-79
2022/02/05 13:10:13;;;;;;;7.32;1.50;;;;;;;6.72;79.18;100774.94;5227012;28;20028;-80
2022/02/05 13:12:43;;;;;;;7.60;1.42;;;;;;;6.71;78.90;100789.69;5230163;28;20047;-79
2022/02/05 13:15:25;;;;;;;10.75;1.80;;;;;;;6.68;79.03;100789.75;5232350;28;20033;-79
2022/02/05 13:18:26;;;;;;;7.55;1.58;;;;;;;6.74;79.66;100792.22;5225058;28;20052;-79
2022/02/05 13:29:16;;;;;;;5.55;1.52;;;;;;;6.92;81.48;100785.88;5234075;28;20044;-79
2022/02/05 13:34:33;;;;;;;11.07;2.10;;;;;;;6.95;81.42;100793.63;5230820;28;20052;-79
2022/02/05 13:37:17;;;;;;;11.40;1.80;;;;;;;6.85;79.71;100779.94;5232873;28;20082;-79
2022/02/05 13:40:00;;;;;;;4.10;1.27;;;;;;;6.68;79.71;100784.56;5225410;28;20180;-79
2022/02/05 13:42:36;;;;;;;8.25;1.60;;;;;;;6.80;80.34;100775.69;5228035;28;20519;-79
2022/02/05 13:45:13;;;;;;;6.25;1.63;;;;;;;6.80;79.85;100784.31;5231550;28;20032;-79
2022/02/05 13:47:43;;;;;;;7.72;1.35;;;;;;;6.86;80.02;100781.66;5234089;28;20033;-79
2022/02/05 13:50:25;;;;;;;7.90;1.50;;;;;;;6.84;80.24;100777.34;5226945;28;20113;-79
2022/02/05 13:53:02;;;;;;;5.93;1.35;;;;;;;6.87;79.60;100770.38;5218385;28;20477;-79
2022/02/05 13:55:40;;;;;;;9.15;1.50;;;;;;;6.92;79.25;100778.09;5221064;28;20029;-79
2022/02/05 13:58:15;;;;;;;5.45;1.27;;;;;;;6.95;79.58;100773.69;5225998;28;20028;-79
2022/02/05 14:00:53;;;;;;;10.40;2.13;;;;;;;6.96;79.97;100774.53;5228061;28;20070;-79
2022/02/05 14:03:28;;;;;;;7.00;2.00;;;;;;;6.89;79.62;100773.78;5220522;28;20025;-80
2022/02/05 14:06:10;;;;;;;7.82;1.98;;;;;;;6.85;79.59;100773.88;5231052;28;20036;-83
2022/02/05 14:08:49;;;;;;;5.72;1.70;;;;;;;6.80;80.17;100766.16;5237007;28;20032;-80
2022/02/05 14:11:28;;;;;;;4.47;1.50;;;;;;;6.87;79.15;100766.91;5227129;28;20025;-79
2022/02/05 14:14:00;;;;;;;7.70;1.85;;;;;;;6.82;78.50;100771.31;5223865;28;20041;-78
2022/02/05 14:16:37;;;;;;;5.43;1.50;;;;;;;6.76;78.91;100774.03;5224556;28;20029;-78
2022/02/05 14:19:08;;;;;;;7.03;2.10;;;;;;;6.74;78.42;100774.06;5225578;28;20856;-80
2022/02/05 14:21:47;;;;;;;5.82;1.80;;;;;;;6.76;80.77;100771.44;5223003;28;20032;-79
2022/02/05 14:24:31;;;;;;;4.90;1.60;;;;;;;6.68;80.32;100773.28;5216555;28;20124;-79
2022/02/05 14:27:16;;;;;;;7.65;1.70;;;;;;;6.71;81.00;100768.03;5234703;28;20046;-79
2022/02/05 14:36:00;;;;;;;8.57;2.08;;;;;;;6.77;81.13;100768.81;5229061;28;20406;-79
2022/02/05 14:40:43;;;;;;;5.95;2.15;;;;;;;6.69;81.33;100760.31;5228699;28;20749;-79
2022/02/05 14:43:17;;;;;;;7.63;1.95;;;;;;;6.59;81.78;100768.28;5229220;28;20037;-79
2022/02/05 14:45:48;;;;;;;6.43;1.98;;;;;;;6.42;82.41;100754.72;5224084;28;20032;-80
2022/02/05 14:48:18;;;;;;;6.43;1.92;;;;;;;6.38;81.81;100766.88;5230497;28;20032;-79
2022/02/05 14:50:49;;;;;;;6.10;1.60;;;;;;;6.34;82.79;100764.34;5222260;28;20041;-79
2022/02/05 14:53:20;;;;;;;5.07;1.70;;;;;;;6.38;82.32;100764.28;5226109;28;20368;-79
2022/02/05 14:55:50;;;;;;;7.63;2.00;;;;;;;6.42;81.49;100755.56;5226177;28;20044;-79